createdAt,value
2023-05-20T00:00:56.633Z,26.05
2023-05-20T00:03:24.215Z,18.05
2023-05-20T00:05:51.990Z,18.88
2023-05-20T00:08:22.137Z,23.58
2023-05-20T00:10:49.737Z,27.55
2023-05-20T00:13:17.445Z,21.23
2023-05-20T00:15:45.553Z,25.52
2023-05-20T00:18:13.196Z,19.70
2023-05-20T00:20:40.992Z,17.92
2023-05-20T00:23:08.676Z,20.52
2023-05-20T00:25:36.740Z,20.23
2023-05-20T00:28:05.930Z,23.95
2023-05-20T00:30:33.578Z,20.17
2023-05-20T00:33:01.311Z,20.08
2023-05-20T00:35:29.159Z,25.70
2023-05-20T00:37:56.596Z,30.13
2023-05-20T00:40:24.737Z,28.08
2023-05-20T00:42:52.204Z,26.70
2023-05-20T00:45:19.965Z,24.15
2023-05-20T00:47:48.193Z,26.60
2023-05-20T00:50:17.152Z,27.95
2023-05-20T00:52:47.566Z,26.00
2023-05-20T00:55:16.482Z,24.77
2023-05-20T00:57:44.112Z,22.73
2023-05-20T01:00:13.408Z,20.90
2023-05-20T01:02:41.157Z,20.33
2023-05-20T01:05:09.114Z,17.15
2023-05-20T01:07:37.413Z,20.83
2023-05-20T01:10:05.741Z,20.67
2023-05-20T01:12:54.231Z,21.67
2023-05-20T01:15:24.658Z,22.40
2023-05-20T01:18:00.885Z,21.40
2023-05-20T01:20:31.859Z,24.02
2023-05-20T01:22:59.706Z,24.90
2023-05-20T01:25:27.215Z,22.38
2023-05-20T01:28:00.383Z,26.80
2023-05-20T01:30:34.927Z,29.88
2023-05-20T01:33:11.706Z,28.50
2023-05-20T01:35:41.439Z,28.17
2023-05-20T01:38:11.399Z,28.83
2023-05-20T01:40:41.248Z,31.25
2023-05-20T01:43:09.271Z,29.60
2023-05-20T01:45:37.658Z,24.88
2023-05-20T01:48:06.489Z,35.67
2023-05-20T01:50:34.179Z,37.60
2023-05-20T01:53:01.790Z,32.83
2023-05-20T01:55:29.838Z,38.40
2023-05-20T01:57:57.489Z,33.55
2023-05-20T02:00:26.253Z,34.47
2023-05-20T02:02:54.026Z,36.72
2023-05-20T02:05:21.684Z,32.17
2023-05-20T02:07:49.287Z,30.67
2023-05-20T02:10:16.865Z,34.65
2023-05-20T02:12:44.400Z,37.08
2023-05-20T02:15:12.030Z,27.20
2023-05-20T02:17:39.578Z,30.17
2023-05-20T02:20:08.134Z,26.83
2023-05-20T02:25:21.957Z,19.08
2023-05-20T02:27:49.428Z,17.10
2023-05-20T02:30:17.452Z,13.73
2023-05-20T02:32:45.206Z,14.88
2023-05-20T02:35:13.172Z,14.07
2023-05-20T02:37:40.932Z,14.95
2023-05-20T02:40:09.614Z,14.40
2023-05-20T02:42:40.693Z,16.30
2023-05-20T02:45:09.328Z,19.30
2023-05-20T02:47:37.074Z,17.55
2023-05-20T02:50:07.375Z,17.13
2023-05-20T02:52:35.593Z,17.73
2023-05-20T02:55:05.777Z,15.52
2023-05-20T02:57:36.104Z,15.13
2023-05-20T03:00:11.261Z,15.95
2023-05-20T03:02:39.063Z,18.73
2023-05-20T03:05:08.249Z,15.95
2023-05-20T03:07:36.702Z,12.10
2023-05-20T03:10:08.691Z,22.00
2023-05-20T03:12:36.283Z,19.13
2023-05-20T03:15:04.138Z,21.75
2023-05-20T03:17:31.859Z,16.33
2023-05-20T03:19:59.376Z,14.15
2023-05-20T03:22:26.932Z,16.88
2023-05-20T03:24:54.722Z,18.55
2023-05-20T03:27:22.482Z,23.48
2023-05-20T03:29:50.710Z,23.60
2023-05-20T03:32:18.622Z,16.45
2023-05-20T03:34:46.603Z,16.17
2023-05-20T03:37:15.129Z,21.83
2023-05-20T03:39:44.202Z,20.48
2023-05-20T03:42:12.993Z,20.23
2023-05-20T03:44:40.640Z,19.50
2023-05-20T03:47:10.674Z,14.75
2023-05-20T03:49:40.613Z,16.45
2023-05-20T03:52:08.516Z,14.05
2023-05-20T03:54:36.871Z,14.55
2023-05-20T03:57:05.816Z,18.25
2023-05-20T03:59:33.457Z,19.95
2023-05-20T04:02:01.363Z,22.55
2023-05-20T04:04:31.081Z,29.20
2023-05-20T04:07:02.709Z,26.45
2023-05-20T04:09:30.929Z,45.08
2023-05-20T04:11:58.490Z,28.05
2023-05-20T04:14:26.014Z,20.85
2023-05-20T04:16:54.281Z,20.17
2023-05-20T04:19:23.660Z,20.67
2023-05-20T04:21:51.401Z,14.63
2023-05-20T04:24:19.347Z,18.52
2023-05-20T04:26:47.633Z,15.93
2023-05-20T04:29:15.530Z,13.97
2023-05-20T04:31:45.025Z,18.77
2023-05-20T04:34:14.369Z,16.23
2023-05-20T04:36:42.980Z,11.73
2023-05-20T04:39:10.807Z,13.13
2023-05-20T04:41:39.511Z,12.52
2023-05-20T04:44:07.635Z,10.48
2023-05-20T04:46:35.362Z,9.82
2023-05-20T04:49:03.934Z,14.52
2023-05-20T04:51:31.507Z,22.83
2023-05-20T04:53:59.342Z,24.23
2023-05-20T04:56:29.342Z,24.67
2023-05-20T04:58:58.148Z,25.08
2023-05-20T05:01:25.777Z,20.67
2023-05-20T05:03:53.401Z,16.60
2023-05-20T05:06:22.049Z,16.23
2023-05-20T05:08:50.217Z,12.50
2023-05-20T05:11:17.843Z,9.48
2023-05-20T05:13:47.026Z,8.00
2023-05-20T05:16:15.156Z,8.63
2023-05-20T05:18:43.363Z,18.02
2023-05-20T05:21:11.310Z,29.33
2023-05-20T05:23:39.386Z,23.40
2023-05-20T05:26:06.878Z,22.23
2023-05-20T05:28:34.572Z,25.10
2023-05-20T05:31:02.274Z,24.42
2023-05-20T05:33:30.835Z,23.52
2023-05-20T05:35:58.560Z,18.63
2023-05-20T05:38:26.108Z,20.52
2023-05-20T05:40:53.814Z,18.77
2023-05-20T05:43:22.094Z,15.67
2023-05-20T05:45:51.583Z,11.20
2023-05-20T05:48:19.129Z,7.73
2023-05-20T05:50:46.884Z,7.20
2023-05-20T05:53:16.347Z,6.78
2023-05-20T05:55:47.027Z,7.85
2023-05-20T05:58:15.002Z,7.00
2023-05-20T06:00:42.905Z,6.60
2023-05-20T06:03:10.962Z,7.40
2023-05-20T06:05:38.871Z,5.60
2023-05-20T06:08:06.405Z,5.60
2023-05-20T06:10:36.096Z,6.88
2023-05-20T06:13:03.623Z,9.90
2023-05-20T06:15:32.087Z,12.68
2023-05-20T06:17:59.595Z,11.52
2023-05-20T06:20:27.672Z,10.18
2023-05-20T06:22:55.425Z,9.70
2023-05-20T06:25:25.718Z,7.38
2023-05-20T06:27:53.290Z,8.10
2023-05-20T06:30:23.060Z,6.95
2023-05-20T06:32:50.816Z,6.63
2023-05-20T06:35:18.632Z,6.38
2023-05-20T06:37:46.593Z,7.30
2023-05-20T06:40:14.288Z,8.70
2023-05-20T06:42:41.835Z,7.33
2023-05-20T06:45:10.032Z,8.98
2023-05-20T06:47:42.844Z,9.77
2023-05-20T06:50:11.447Z,8.60
2023-05-20T06:52:39.497Z,9.75
2023-05-20T06:55:09.007Z,9.00
2023-05-20T06:57:36.643Z,9.73
2023-05-20T07:00:05.811Z,8.35
2023-05-20T07:02:37.481Z,9.80
2023-05-20T07:05:06.342Z,9.02
2023-05-20T07:07:34.795Z,8.82
2023-05-20T07:10:05.167Z,8.77
2023-05-20T07:12:34.911Z,9.93
2023-05-20T07:15:04.304Z,9.23
2023-05-20T07:17:33.710Z,9.27
2023-05-20T07:20:01.371Z,9.25
2023-05-20T07:22:30.604Z,9.50
2023-05-20T07:25:09.633Z,9.30
2023-05-20T07:27:38.477Z,9.95
2023-05-20T07:30:07.122Z,8.60
2023-05-20T07:32:36.365Z,7.88
2023-05-20T07:35:04.665Z,9.50
2023-05-20T07:37:32.364Z,9.00
2023-05-20T07:40:01.077Z,8.88
2023-05-20T07:42:28.824Z,8.88
2023-05-20T07:45:00.365Z,8.93
2023-05-20T07:47:28.624Z,8.30
2023-05-20T07:49:56.301Z,9.68
2023-05-20T07:52:24.634Z,9.20
2023-05-20T07:54:52.120Z,8.55
2023-05-20T07:57:20.442Z,8.93
2023-05-20T07:59:48.160Z,7.63
2023-05-20T08:02:17.074Z,8.13
2023-05-20T08:04:44.899Z,9.38
2023-05-20T08:07:14.574Z,9.18
2023-05-20T08:09:51.055Z,9.23
2023-05-20T08:12:19.375Z,9.73
2023-05-20T08:14:47.723Z,8.32
2023-05-20T08:17:15.404Z,7.97
2023-05-20T08:19:43.141Z,8.80
2023-05-20T08:22:12.381Z,8.15
2023-05-20T08:24:40.037Z,8.50
2023-05-20T08:27:07.598Z,8.60
2023-05-20T08:29:35.665Z,9.00
2023-05-20T08:34:33.482Z,7.90
2023-05-20T08:37:01.445Z,8.02
2023-05-20T08:39:29.037Z,8.18
2023-05-20T08:41:58.211Z,8.38
2023-05-20T08:44:27.920Z,7.43
2023-05-20T08:46:57.859Z,7.55
2023-05-20T08:49:26.088Z,8.10
2023-05-20T08:51:53.591Z,10.48
2023-05-20T08:54:23.387Z,9.05
2023-05-20T08:56:53.477Z,10.30
2023-05-20T08:59:21.527Z,8.60
2023-05-20T09:01:49.157Z,9.43
2023-05-20T09:04:17.121Z,9.02
2023-05-20T09:06:46.463Z,8.98
2023-05-20T09:09:15.091Z,9.40
2023-05-20T09:11:43.277Z,10.65
2023-05-20T09:14:11.037Z,8.60
2023-05-20T09:16:41.068Z,9.63
2023-05-20T09:19:10.416Z,8.63
2023-05-20T09:21:40.500Z,9.43
2023-05-20T09:24:08.122Z,10.13
2023-05-20T09:26:36.433Z,9.63
2023-05-20T09:29:04.522Z,9.73
2023-05-20T09:31:35.135Z,9.80
2023-05-20T09:34:03.349Z,11.32
2023-05-20T09:36:34.516Z,9.77
2023-05-20T09:39:04.718Z,9.27
2023-05-20T09:41:39.159Z,9.52
2023-05-20T09:44:07.518Z,9.85
2023-05-20T09:46:36.338Z,9.75
2023-05-20T09:49:06.176Z,8.85
2023-05-20T09:51:34.827Z,9.32
2023-05-20T09:54:03.419Z,8.57
2023-05-20T09:56:31.357Z,10.18
2023-05-20T09:58:59.358Z,9.27
2023-05-20T10:01:27.144Z,7.95
2023-05-20T10:03:55.810Z,9.47
2023-05-20T10:07:01.371Z,7.72
2023-05-20T10:09:40.547Z,8.45
2023-05-20T10:12:40.570Z,7.47
2023-05-20T10:15:18.103Z,7.68
2023-05-20T10:18:42.385Z,7.53
2023-05-20T10:21:18.082Z,7.78
2023-05-20T10:23:45.834Z,7.07
2023-05-20T10:26:13.274Z,7.47
2023-05-20T10:28:41.295Z,7.57
2023-05-20T10:31:33.860Z,6.17
2023-05-20T10:34:01.730Z,7.43
2023-05-20T10:36:31.324Z,7.43
2023-05-20T10:38:59.511Z,6.53
2023-05-20T10:41:28.809Z,6.75
2023-05-20T10:44:04.538Z,6.22
2023-05-20T10:46:48.164Z,7.28
2023-05-20T10:49:24.160Z,6.95
2023-05-20T10:51:55.299Z,7.15
2023-05-20T10:54:22.834Z,7.23
2023-05-20T10:56:54.344Z,6.15
2023-05-20T10:59:22.406Z,7.15
2023-05-20T11:01:50.556Z,7.00
2023-05-20T11:04:19.043Z,7.50
2023-05-20T11:06:53.232Z,6.75
2023-05-20T11:09:23.883Z,6.40
2023-05-20T11:11:54.464Z,6.93
2023-05-20T11:14:22.228Z,6.13
2023-05-20T11:16:55.687Z,7.13
2023-05-20T11:19:23.369Z,6.82
2023-05-20T11:21:51.043Z,6.57
2023-05-20T11:24:27.228Z,6.15
2023-05-20T11:26:56.803Z,5.95
2023-05-20T11:29:26.763Z,5.70
2023-05-20T11:31:55.244Z,5.72
2023-05-20T11:34:25.840Z,9.07
2023-05-20T11:36:58.311Z,6.65
2023-05-20T11:39:29.773Z,6.45
2023-05-20T11:41:58.540Z,7.30
2023-05-20T11:44:26.141Z,6.55
2023-05-20T11:47:03.146Z,6.85
2023-05-20T11:49:38.626Z,6.80
2023-05-20T11:52:10.497Z,6.90
2023-05-20T11:54:38.019Z,7.38
2023-05-20T11:57:07.104Z,7.88
2023-05-20T11:59:36.017Z,6.55
2023-05-20T12:02:03.440Z,7.22
2023-05-20T12:04:31.087Z,7.03
2023-05-20T12:06:58.717Z,7.90
2023-05-20T12:09:26.494Z,6.38
2023-05-20T12:11:55.981Z,6.78
2023-05-20T12:14:23.371Z,8.07
2023-05-20T12:16:52.978Z,6.97
2023-05-20T12:19:20.646Z,8.02
2023-05-20T12:21:48.271Z,7.60
2023-05-20T12:24:15.840Z,7.80
2023-05-20T12:26:43.654Z,7.70
2023-05-20T12:29:11.234Z,7.80
2023-05-20T12:31:38.992Z,8.00
2023-05-20T12:34:06.633Z,7.13
2023-05-20T12:36:34.317Z,6.97
2023-05-20T12:39:01.741Z,6.93
2023-05-20T12:41:29.170Z,6.25
2023-05-20T12:43:56.610Z,7.07
2023-05-20T12:46:24.147Z,6.40
2023-05-20T12:48:51.820Z,7.30
2023-05-20T12:51:20.472Z,7.78
2023-05-20T12:53:47.955Z,7.55
2023-05-20T12:56:15.741Z,8.65
2023-05-20T12:58:43.125Z,9.95
2023-05-20T13:01:10.800Z,7.93
2023-05-20T13:03:38.250Z,9.32
2023-05-20T13:06:06.149Z,7.35
2023-05-20T13:08:33.563Z,9.43
2023-05-20T13:11:01.088Z,8.05
2023-05-20T13:13:28.676Z,8.40
2023-05-20T13:15:56.175Z,7.80
2023-05-20T13:18:23.589Z,8.77
2023-05-20T13:20:51.287Z,8.35
2023-05-20T13:23:18.798Z,8.00
2023-05-20T13:25:46.394Z,7.47
2023-05-20T13:28:17.801Z,9.40
2023-05-20T13:30:45.392Z,7.88
2023-05-20T13:33:12.858Z,8.77
2023-05-20T13:35:40.431Z,8.35
2023-05-20T13:38:08.029Z,7.95
2023-05-20T13:40:35.816Z,7.70
2023-05-20T13:43:03.439Z,7.88
2023-05-20T13:45:31.340Z,6.72
2023-05-20T13:47:58.944Z,8.20
2023-05-20T13:50:26.819Z,8.30
2023-05-20T13:52:54.399Z,8.57
2023-05-20T13:55:24.002Z,8.98
2023-05-20T13:57:53.619Z,8.32
2023-05-20T14:00:21.297Z,9.52
2023-05-20T14:02:49.117Z,7.88
2023-05-20T14:05:18.199Z,4.80
2023-05-20T14:07:45.911Z,6.85
2023-05-20T14:10:13.341Z,7.60
2023-05-20T14:12:42.274Z,6.68
2023-05-20T14:15:10.818Z,8.18
2023-05-20T14:17:38.362Z,7.55
2023-05-20T14:20:07.805Z,5.60
2023-05-20T14:22:35.880Z,7.75
2023-05-20T14:25:04.055Z,5.55
2023-05-20T14:27:31.589Z,6.40
2023-05-20T14:29:59.215Z,7.10
2023-05-20T14:32:28.632Z,7.20
2023-05-20T14:34:56.335Z,6.28
2023-05-20T14:37:23.926Z,5.90
2023-05-20T14:39:51.424Z,8.52
2023-05-20T14:42:19.147Z,18.70
2023-05-20T14:44:48.317Z,15.55
2023-05-20T14:47:21.489Z,13.95
2023-05-20T14:49:49.652Z,17.85
2023-05-20T14:52:18.160Z,18.83
2023-05-20T14:54:45.778Z,30.85
2023-05-20T14:57:15.222Z,26.80
2023-05-20T14:59:43.111Z,17.25
2023-05-20T15:02:12.169Z,14.75
2023-05-20T15:04:41.956Z,24.38
2023-05-20T15:07:09.502Z,23.30
2023-05-20T15:09:37.123Z,22.85
2023-05-20T15:12:05.574Z,19.05
2023-05-20T15:14:33.099Z,17.55
2023-05-20T15:17:00.868Z,15.88
2023-05-20T15:19:28.534Z,11.20
2023-05-20T15:21:56.046Z,12.27
2023-05-20T15:24:23.660Z,13.25
2023-05-20T15:26:52.909Z,13.32
2023-05-20T15:29:21.416Z,17.30
2023-05-20T15:31:49.045Z,10.17
2023-05-20T15:34:18.410Z,7.22
2023-05-20T15:36:46.117Z,8.95
2023-05-20T15:39:14.124Z,8.82
2023-05-20T15:41:41.883Z,10.27
2023-05-20T15:44:09.481Z,10.82
2023-05-20T15:46:37.203Z,7.43
2023-05-20T15:49:05.290Z,8.18
2023-05-20T15:51:32.905Z,9.52
2023-05-20T15:54:01.360Z,9.23
2023-05-20T15:56:30.714Z,8.38
2023-05-20T15:58:58.313Z,8.45
2023-05-20T16:01:26.510Z,8.15
2023-05-20T16:03:56.937Z,11.13
2023-05-20T16:06:25.355Z,9.93
2023-05-20T16:08:52.947Z,9.20
2023-05-20T16:11:21.033Z,8.63
2023-05-20T16:13:48.508Z,10.00
2023-05-20T16:16:16.350Z,9.82
2023-05-20T16:18:44.108Z,11.75
2023-05-20T16:21:12.256Z,8.40
2023-05-20T16:23:39.897Z,10.05
2023-05-20T16:26:07.541Z,13.77
2023-05-20T16:28:35.588Z,10.13
2023-05-20T16:31:03.569Z,11.13
2023-05-20T16:33:31.196Z,11.82
2023-05-20T16:35:59.049Z,8.80
2023-05-20T16:38:26.622Z,9.73
2023-05-20T16:40:54.505Z,10.13
2023-05-20T16:43:22.495Z,8.88
2023-05-20T16:45:51.053Z,17.42
2023-05-20T16:48:18.595Z,26.25
2023-05-20T16:50:46.459Z,25.02
2023-05-20T16:53:15.656Z,17.75
2023-05-20T16:55:44.014Z,19.23
2023-05-20T16:58:11.594Z,13.25
2023-05-20T17:00:39.017Z,12.18
2023-05-20T17:03:06.737Z,14.93
2023-05-20T17:05:34.386Z,13.63
2023-05-20T17:08:02.090Z,15.52
2023-05-20T17:10:30.080Z,13.07
2023-05-20T17:12:57.806Z,12.82
2023-05-20T17:15:25.756Z,14.10
2023-05-20T17:17:53.411Z,14.18
2023-05-20T17:20:21.050Z,16.70
2023-05-20T17:22:48.543Z,14.95
2023-05-20T17:25:16.068Z,16.52
2023-05-20T17:27:43.628Z,13.65
2023-05-20T17:30:11.728Z,16.88
2023-05-20T17:32:40.028Z,15.05
2023-05-20T17:35:08.434Z,12.25
2023-05-20T17:37:37.021Z,14.53
2023-05-20T17:40:05.576Z,16.50
2023-05-20T17:42:33.509Z,16.90
2023-05-20T17:45:01.204Z,20.10
2023-05-20T17:47:28.733Z,18.48
2023-05-20T17:49:56.487Z,17.10
2023-05-20T17:52:24.131Z,14.40
2023-05-20T17:54:51.992Z,20.05
2023-05-20T17:57:19.994Z,68.20
2023-05-20T17:59:48.926Z,50.00
2023-05-20T18:02:16.643Z,39.28
2023-05-20T18:04:44.332Z,33.50
2023-05-20T18:07:12.754Z,25.65
2023-05-20T18:09:40.265Z,26.83
2023-05-20T18:12:08.139Z,24.67
2023-05-20T18:14:35.955Z,24.55
2023-05-20T18:17:04.757Z,22.45
2023-05-20T18:19:33.203Z,16.88
2023-05-20T18:22:02.003Z,14.20
2023-05-20T18:24:30.174Z,14.95
2023-05-20T18:26:57.958Z,17.20
2023-05-20T18:29:26.461Z,17.38
2023-05-20T18:31:54.170Z,12.80
2023-05-20T18:34:21.696Z,15.02
2023-05-20T18:36:50.008Z,15.40
2023-05-20T18:39:19.963Z,19.83
2023-05-20T18:41:47.965Z,21.42
2023-05-20T18:44:18.034Z,24.38
2023-05-20T18:46:45.949Z,36.90
2023-05-20T18:49:13.613Z,47.92
2023-05-20T18:51:41.568Z,80.53
2023-05-20T18:54:09.507Z,33.60
2023-05-20T18:56:37.394Z,33.72
2023-05-20T18:59:05.093Z,35.45
2023-05-20T19:01:33.348Z,31.33
2023-05-20T19:04:01.323Z,34.83
2023-05-20T19:06:29.034Z,33.33
2023-05-20T19:08:57.170Z,34.85
2023-05-20T19:11:24.918Z,38.83
2023-05-20T19:13:52.473Z,56.80
2023-05-20T19:16:20.349Z,41.35
2023-05-20T19:18:48.055Z,42.13
2023-05-20T19:21:16.029Z,41.38
2023-05-20T19:23:43.914Z,40.28
2023-05-20T19:26:11.678Z,34.42
2023-05-20T19:28:39.629Z,38.85
2023-05-20T19:31:07.283Z,36.08
2023-05-20T19:33:34.971Z,36.47
2023-05-20T19:36:02.754Z,34.20
2023-05-20T19:38:30.309Z,37.67
2023-05-20T19:40:57.783Z,35.78
2023-05-20T19:43:25.344Z,35.58
2023-05-20T19:45:53.094Z,35.33
2023-05-20T19:48:22.210Z,37.95
2023-05-20T19:50:50.119Z,27.55
2023-05-20T19:53:20.221Z,35.17
2023-05-20T19:55:47.876Z,42.35
2023-05-20T19:58:16.158Z,34.50
2023-05-20T20:00:43.673Z,30.58
2023-05-20T20:03:11.652Z,27.42
2023-05-20T20:05:39.505Z,28.80
2023-05-20T20:08:07.256Z,35.13
2023-05-20T20:10:36.891Z,45.95
2023-05-20T20:13:04.507Z,51.10
2023-05-20T20:15:32.305Z,50.65
2023-05-20T20:18:02.400Z,40.30
2023-05-20T20:20:30.552Z,44.35
2023-05-20T20:22:58.397Z,49.25
2023-05-20T20:25:26.189Z,45.80
2023-05-20T20:27:53.925Z,34.60
2023-05-20T20:30:22.206Z,37.88
2023-05-20T20:32:49.942Z,35.70
2023-05-20T20:35:17.767Z,35.60
2023-05-20T20:37:45.271Z,42.08
2023-05-20T20:40:12.770Z,35.58
2023-05-20T20:42:41.473Z,41.47
2023-05-20T20:45:28.221Z,33.30
2023-05-20T20:47:57.292Z,34.15
2023-05-20T20:50:25.346Z,32.35
2023-05-20T20:52:52.828Z,26.85
2023-05-20T20:55:20.328Z,30.80
2023-05-20T20:57:49.087Z,43.60
2023-05-20T21:00:20.092Z,43.72
2023-05-20T21:02:48.095Z,40.45
2023-05-20T21:05:16.270Z,31.27
2023-05-20T21:07:49.264Z,37.38
2023-05-20T21:10:17.230Z,40.33
2023-05-20T21:12:45.104Z,32.92
2023-05-20T21:15:14.275Z,26.33
2023-05-20T21:17:42.120Z,24.48
2023-05-20T21:20:11.020Z,30.17
2023-05-20T21:22:38.755Z,47.55
2023-05-20T21:25:07.151Z,45.42
2023-05-20T21:27:34.965Z,34.15
2023-05-20T21:30:02.630Z,30.08
2023-05-20T21:32:30.388Z,32.95
2023-05-20T21:34:58.438Z,26.90
2023-05-20T21:37:26.148Z,26.42
2023-05-20T21:39:53.605Z,31.08
2023-05-20T21:42:21.089Z,26.98
2023-05-20T21:44:48.654Z,35.92
2023-05-20T21:47:16.493Z,27.00
2023-05-20T21:49:44.070Z,26.20
2023-05-20T21:52:11.777Z,45.90
2023-05-20T21:54:39.447Z,33.22
2023-05-20T21:57:07.039Z,37.38
2023-05-20T21:59:35.465Z,37.97
2023-05-20T22:02:03.150Z,28.90
2023-05-20T22:04:32.838Z,26.35
2023-05-20T22:07:00.647Z,27.17
2023-05-20T22:09:28.165Z,36.60
2023-05-20T22:11:55.863Z,25.90
2023-05-20T22:14:23.510Z,24.00
2023-05-20T22:16:51.095Z,25.27
2023-05-20T22:19:18.855Z,22.88
2023-05-20T22:21:50.873Z,20.23
2023-05-20T22:24:18.870Z,22.10
2023-05-20T22:26:46.356Z,22.08
2023-05-20T22:29:13.901Z,22.30
2023-05-20T22:31:41.314Z,22.98
2023-05-20T22:34:09.193Z,25.95
2023-05-20T22:36:37.164Z,28.70
2023-05-20T22:39:06.360Z,24.20
2023-05-20T22:44:01.432Z,28.75
2023-05-20T22:46:29.206Z,36.20
2023-05-20T22:48:57.751Z,28.90
2023-05-20T22:51:25.346Z,24.10
2023-05-20T22:53:53.026Z,21.38
2023-05-20T22:56:20.731Z,23.83
2023-05-20T22:58:48.147Z,21.08
2023-05-20T23:01:16.024Z,21.75
2023-05-20T23:03:44.282Z,20.00
2023-05-20T23:06:12.210Z,21.90
2023-05-20T23:08:42.286Z,20.80
2023-05-20T23:11:10.072Z,22.30
2023-05-20T23:13:37.506Z,26.92
2023-05-20T23:16:05.462Z,29.90
2023-05-20T23:18:33.156Z,26.52
2023-05-20T23:21:01.144Z,21.50
2023-05-20T23:23:31.775Z,19.70
2023-05-20T23:26:01.002Z,36.20
2023-05-20T23:28:28.542Z,38.60
2023-05-20T23:30:56.433Z,48.97
2023-05-20T23:33:25.501Z,60.42
2023-05-20T23:35:53.392Z,63.80
2023-05-20T23:38:21.341Z,46.63
2023-05-20T23:40:49.819Z,72.63
2023-05-20T23:43:17.316Z,59.90
2023-05-20T23:45:45.538Z,53.05
2023-05-20T23:48:12.972Z,42.72
2023-05-20T23:50:40.408Z,37.40
2023-05-20T23:53:08.324Z,45.00
2023-05-20T23:55:36.194Z,40.78
2023-05-20T23:58:03.925Z,41.70
